createdAt,value
2022-10-17T00:00:10.362Z,13.05
2022-10-17T00:05:14.523Z,13.01
2022-10-17T00:10:18.657Z,12.89
2022-10-17T00:15:22.829Z,12.97
2022-10-17T00:20:26.982Z,13.17
2022-10-17T00:25:31.157Z,13.37
2022-10-17T00:30:35.318Z,13.45
2022-10-17T00:35:39.503Z,14.03
2022-10-17T00:40:43.696Z,14.19
2022-10-17T00:45:47.774Z,14.14
2022-10-17T00:50:51.988Z,14.31
2022-10-17T00:55:56.105Z,14.26
2022-10-17T01:01:00.354Z,14.60
2022-10-17T01:06:04.447Z,14.50
2022-10-17T01:11:08.596Z,14.71
2022-10-17T01:16:12.772Z,14.63
2022-10-17T01:21:16.916Z,14.71
2022-10-17T01:26:21.105Z,14.91
2022-10-17T01:31:25.259Z,15.06
2022-10-17T01:36:29.402Z,15.10
2022-10-17T01:41:33.539Z,15.10
2022-10-17T01:46:37.719Z,15.08
2022-10-17T01:51:41.904Z,15.19
2022-10-17T01:56:46.047Z,15.12
2022-10-17T02:01:50.226Z,15.07
2022-10-17T02:06:54.383Z,15.27
2022-10-17T02:11:58.532Z,15.43
2022-10-17T02:17:02.695Z,15.46
2022-10-17T02:22:06.873Z,15.54
2022-10-17T02:27:10.988Z,15.63
2022-10-17T02:32:15.162Z,15.60
2022-10-17T02:37:19.327Z,15.81
2022-10-17T02:42:23.486Z,15.73
2022-10-17T02:47:27.629Z,15.70
2022-10-17T02:52:32.130Z,15.52
2022-10-17T02:57:35.987Z,15.41
2022-10-17T03:02:40.135Z,15.23
2022-10-17T03:07:44.264Z,15.45
2022-10-17T03:12:48.472Z,15.57
2022-10-17T03:17:52.586Z,15.68
2022-10-17T03:22:56.772Z,15.68
2022-10-17T03:28:00.940Z,15.72
2022-10-17T03:33:05.092Z,15.54
2022-10-17T03:38:09.267Z,15.52
2022-10-17T03:43:13.381Z,15.53
2022-10-17T03:48:17.569Z,15.60
2022-10-17T03:53:21.739Z,15.59
2022-10-17T03:58:25.868Z,15.59
2022-10-17T04:03:30.035Z,15.42
2022-10-17T04:08:34.197Z,15.31
2022-10-17T04:13:38.374Z,15.46
2022-10-17T04:18:42.529Z,15.42
2022-10-17T04:23:46.706Z,15.46
2022-10-17T04:28:50.846Z,15.48
2022-10-17T04:33:55.009Z,15.61
2022-10-17T04:38:59.212Z,15.63
2022-10-17T04:44:03.329Z,15.78
2022-10-17T04:49:07.464Z,15.76
2022-10-17T04:54:11.677Z,15.93
2022-10-17T04:59:15.796Z,16.27
2022-10-17T05:04:22.460Z,16.29
2022-10-17T05:09:22.209Z,16.25
2022-10-17T05:14:26.362Z,16.36
2022-10-17T05:19:30.523Z,16.40
2022-10-17T05:24:34.705Z,16.54
2022-10-17T05:29:38.942Z,16.53
2022-10-17T05:34:43.043Z,16.55
2022-10-17T05:39:49.203Z,16.56
2022-10-17T05:44:49.497Z,16.55
2022-10-17T05:49:53.606Z,16.54
2022-10-17T05:54:57.785Z,16.66
2022-10-17T06:00:01.956Z,16.70
2022-10-17T06:05:06.107Z,16.71
2022-10-17T06:10:10.272Z,16.82
2022-10-17T06:15:14.438Z,16.92
2022-10-17T06:20:18.586Z,16.83
2022-10-17T06:25:22.748Z,16.86
2022-10-17T06:30:26.960Z,17.02
2022-10-17T06:35:31.062Z,17.05
2022-10-17T06:40:35.250Z,17.09
2022-10-17T06:45:39.369Z,17.14
2022-10-17T06:50:43.561Z,17.01
2022-10-17T06:55:47.708Z,16.88
2022-10-17T07:00:51.988Z,16.84
2022-10-17T07:05:56.010Z,16.72
2022-10-17T07:11:00.161Z,16.66
2022-10-17T07:16:04.354Z,16.61
2022-10-17T07:21:08.508Z,16.53
2022-10-17T07:26:12.657Z,16.48
2022-10-17T07:31:16.835Z,16.64
2022-10-17T07:36:20.990Z,16.76
2022-10-17T07:41:25.108Z,16.85
2022-10-17T07:46:29.281Z,16.89
2022-10-17T07:51:33.502Z,17.04
2022-10-17T07:56:37.605Z,17.22
2022-10-17T08:01:41.735Z,17.37
2022-10-17T08:06:45.949Z,17.44
2022-10-17T08:11:50.081Z,17.42
2022-10-17T08:16:54.277Z,17.48
2022-10-17T08:21:58.417Z,17.57
2022-10-17T08:27:02.561Z,17.83
2022-10-17T08:32:09.565Z,17.92
2022-10-17T08:42:15.071Z,18.25
2022-10-17T08:47:19.164Z,18.42
2022-10-17T08:52:23.368Z,18.66
2022-10-17T08:57:27.758Z,18.79
2022-10-17T09:02:31.764Z,18.96
2022-10-17T09:07:35.842Z,19.21
2022-10-17T09:12:39.997Z,19.33
2022-10-17T09:17:44.175Z,19.47
2022-10-17T09:22:48.360Z,19.52
2022-10-17T09:27:52.460Z,19.71
2022-10-17T09:32:56.620Z,19.79
2022-10-17T09:38:00.796Z,19.81
2022-10-17T09:43:04.937Z,19.83
2022-10-17T09:48:09.141Z,19.97
2022-10-17T09:53:13.263Z,20.09
2022-10-17T09:58:17.413Z,20.16
2022-10-17T10:03:21.608Z,20.21
2022-10-17T10:08:25.769Z,20.25
2022-10-17T10:13:29.892Z,20.23
2022-10-17T10:18:34.067Z,20.30
2022-10-17T10:23:38.243Z,20.29
2022-10-17T10:28:42.430Z,20.21
2022-10-17T10:33:49.567Z,20.24
2022-10-17T10:38:50.690Z,20.19
2022-10-17T10:43:54.848Z,20.13
2022-10-17T10:48:59.006Z,20.20
2022-10-17T10:54:03.249Z,20.31
2022-10-17T10:59:07.346Z,20.36
2022-10-17T11:04:11.514Z,20.51
2022-10-17T11:09:13.756Z,20.61
2022-10-17T11:14:17.912Z,20.55
2022-10-17T11:19:22.051Z,20.55
2022-10-17T11:24:26.230Z,20.58
2022-10-17T11:29:30.362Z,20.64
2022-10-17T11:34:34.527Z,20.75
2022-10-17T11:39:38.765Z,20.80
2022-10-17T11:44:42.867Z,20.80
2022-10-17T11:49:49.965Z,20.86
2022-10-17T11:54:51.173Z,20.79
2022-10-17T11:59:55.324Z,20.71
2022-10-17T12:04:59.536Z,20.80
2022-10-17T12:10:03.681Z,20.83
2022-10-17T12:15:07.811Z,20.81
2022-10-17T12:20:11.974Z,20.80
2022-10-17T12:25:16.191Z,20.67
2022-10-17T12:30:20.271Z,20.76
2022-10-17T12:35:24.437Z,20.73
2022-10-17T12:40:28.643Z,20.73
2022-10-17T12:45:32.767Z,20.61
2022-10-17T12:50:38.130Z,20.67
2022-10-17T12:55:41.078Z,20.72
2022-10-17T13:00:59.534Z,20.56
2022-10-17T13:05:49.418Z,20.40
2022-10-17T13:10:53.575Z,20.29
2022-10-17T13:15:57.726Z,20.28
2022-10-17T13:21:01.857Z,20.13
2022-10-17T13:26:06.143Z,20.09
2022-10-17T13:31:10.216Z,20.19
2022-10-17T13:36:14.359Z,20.32
2022-10-17T13:41:35.483Z,20.32
2022-10-17T13:46:36.836Z,20.18
2022-10-17T13:51:26.816Z,20.05
2022-10-17T13:56:31.043Z,19.89
2022-10-17T14:01:35.141Z,19.72
2022-10-17T14:06:39.318Z,19.69
2022-10-17T14:11:43.472Z,19.70
2022-10-17T14:16:47.614Z,19.63
2022-10-17T14:21:51.803Z,19.59
2022-10-17T14:26:55.948Z,19.62
2022-10-17T14:32:00.136Z,19.64
2022-10-17T14:37:04.257Z,19.63
2022-10-17T14:42:08.436Z,19.57
2022-10-17T14:47:41.654Z,19.54
2022-10-17T14:52:18.367Z,19.48
2022-10-17T14:57:20.898Z,19.43
2022-10-17T15:02:25.094Z,19.38
2022-10-17T15:07:29.232Z,19.37
2022-10-17T15:12:33.375Z,19.36
2022-10-17T15:17:37.600Z,19.28
2022-10-17T15:22:41.679Z,19.25
2022-10-17T15:27:45.846Z,19.22
2022-10-17T15:32:50.035Z,19.15
2022-10-17T15:37:54.190Z,19.06
2022-10-17T15:42:58.346Z,18.99
2022-10-17T15:48:02.498Z,18.88
2022-10-17T15:53:06.676Z,18.78
2022-10-17T15:58:10.811Z,18.66
2022-10-17T16:03:15.009Z,18.58
2022-10-17T16:08:19.162Z,18.51
2022-10-17T16:13:23.294Z,18.43
2022-10-17T16:18:27.585Z,18.34
2022-10-17T16:23:31.638Z,18.26
2022-10-17T16:33:39.920Z,18.11
2022-10-17T16:38:42.183Z,18.00
2022-10-17T16:43:46.336Z,17.91
2022-10-17T16:48:50.504Z,17.86
2022-10-17T16:53:54.660Z,17.77
2022-10-17T16:58:58.860Z,17.73
2022-10-17T17:04:03.038Z,17.66
2022-10-17T17:09:07.134Z,17.61
2022-10-17T17:14:11.294Z,17.58
2022-10-17T17:19:15.455Z,17.52
2022-10-17T17:24:19.630Z,17.49
2022-10-17T17:29:23.759Z,17.44
2022-10-17T17:34:27.974Z,17.42
2022-10-17T17:39:32.100Z,17.41
2022-10-17T17:44:36.236Z,17.40
2022-10-17T17:49:40.437Z,17.38
2022-10-17T17:54:44.595Z,17.32
2022-10-17T17:59:48.727Z,17.25
2022-10-17T18:04:52.915Z,17.20
2022-10-17T18:09:57.121Z,17.15
2022-10-17T18:15:01.218Z,17.12
2022-10-17T18:20:05.357Z,17.11
2022-10-17T18:25:09.541Z,17.09
2022-10-17T18:30:13.716Z,17.05
2022-10-17T18:35:17.874Z,17.00
2022-10-17T18:40:22.020Z,16.96
2022-10-17T18:45:26.196Z,16.92
2022-10-17T18:50:30.373Z,16.90
2022-10-17T18:55:34.554Z,16.85
2022-10-17T19:00:38.647Z,16.79
2022-10-17T19:05:42.839Z,16.76
2022-10-17T19:10:46.972Z,16.69
2022-10-17T19:15:51.151Z,16.61
2022-10-17T19:20:55.312Z,16.53
2022-10-17T19:26:00.422Z,16.46
2022-10-17T19:31:03.606Z,16.40
2022-10-17T19:36:07.765Z,16.33
2022-10-17T19:41:11.935Z,16.27
2022-10-17T19:46:16.121Z,16.23
2022-10-17T19:51:20.289Z,16.20
2022-10-17T19:56:24.435Z,16.14
2022-10-17T20:01:28.691Z,16.09
2022-10-17T20:06:32.725Z,16.05
2022-10-17T20:11:36.920Z,16.02
2022-10-17T20:16:41.067Z,15.97
2022-10-17T20:21:45.192Z,15.91
2022-10-17T20:26:49.395Z,15.90
2022-10-17T20:31:53.528Z,15.87
2022-10-17T20:36:57.683Z,15.84
2022-10-17T20:42:01.871Z,15.82
2022-10-17T20:47:11.974Z,15.81
2022-10-17T20:52:10.161Z,15.79
2022-10-17T20:57:14.329Z,15.75
2022-10-17T21:02:18.493Z,15.68
2022-10-17T21:07:22.641Z,15.65
2022-10-17T21:12:36.681Z,15.63
2022-10-17T21:17:30.965Z,15.62
2022-10-17T21:22:35.109Z,15.63
2022-10-17T21:27:39.318Z,15.58
2022-10-17T21:32:51.826Z,15.58
2022-10-17T21:37:47.602Z,15.55
2022-10-17T21:42:51.787Z,15.53
2022-10-17T21:48:12.201Z,15.51
2022-10-17T21:53:00.089Z,15.48
2022-10-17T21:58:04.229Z,15.42
2022-10-17T22:03:08.423Z,15.31
2022-10-17T22:08:10.641Z,15.31
2022-10-17T22:13:14.869Z,15.25
2022-10-17T22:18:18.990Z,15.23
2022-10-17T22:23:23.160Z,15.22
2022-10-17T22:28:27.327Z,15.20
2022-10-17T22:33:31.461Z,15.18
2022-10-17T22:38:33.733Z,15.18
2022-10-17T22:43:37.875Z,15.19
2022-10-17T22:48:42.059Z,15.17
2022-10-17T22:53:46.191Z,15.17
2022-10-17T22:58:50.374Z,15.17
2022-10-17T23:03:54.555Z,15.17
2022-10-17T23:08:58.712Z,15.12
2022-10-17T23:14:02.874Z,15.11
2022-10-17T23:19:07.007Z,15.11
2022-10-17T23:24:11.202Z,15.09
2022-10-17T23:29:15.349Z,15.08
2022-10-17T23:34:19.511Z,15.10
2022-10-17T23:39:23.633Z,15.06
2022-10-17T23:44:27.861Z,15.08
2022-10-17T23:49:31.991Z,15.07
2022-10-17T23:54:36.192Z,15.04
2022-10-17T23:59:40.296Z,15.02
